No particular awareness of the weather is required.    There are no Weather-warnings


Meteo18 Weather Cam more information Meteo18 Weather Cam


Thunder radar more information blitzortung!


Rain radar more information rain snow radar


Visit our other weather sites:

Template documentation
and downloads

And another site



Weather Underground History page Text

Daily Summary for February 25, 2017 Units:  English    Metric   Both
« Previous Day
Next Day »
Daily Weekly Monthly Yearly Custom
  High: Low: Average:
Temperature: TemperatureC °F -2.2 °F 4.1 °F
Dew Point: DewpointC °F -3.0 °F 0.1 °F
Humidity: Humidity % 50 % 77 %
Wind Speed: WindSpeedKMH mph 0.0 mph 1.5 mph
Wind Gust: WindSpeedGustKMH mph - -
Wind:- - SSW
Pressure: PressurehPa in 1019.5 in -
Precipitation: 0.0 in    
Historical Graphs
 
 
Tabular Data for February 25, 2017
Time Temperature Dew Point Pressure Wind Wind Speed Wind Gust Humidity Rainfall Rate (Hourly)
TemperatureC °F DewpointC °F PressurehPa in Calm     Humidity % HourlyPrecipMM in
00:02 2.5 °F -0.1 °F 1023.6 in Calm   1.6 mph 83 % 0.0 in
00:12 2.5 °F -0.3 °F 1023.2 in Calm   1.6 mph 82 % 0.0 in
00:17 2.1 °F -0.5 °F 1023.2 in WNW 1.6 mph 1.6 mph 83 % 0.0 in
00:22 1.8 °F -0.6 °F 1023.2 in Calm   1.6 mph 84 % 0.0 in
00:27 1.6 °F -0.6 °F 1023.2 in East 1.6 mph 1.6 mph 85 % 0.0 in
00:32 1.5 °F -0.4 °F 1023.2 in Calm   3.2 mph 87 % 0.0 in
00:42 1.7 °F -0.6 °F 1023.2 in Calm   3.2 mph 85 % 0.0 in
00:47 1.5 °F -0.7 °F 1023.2 in Calm   3.2 mph 85 % 0.0 in
00:57 1.3 °F -0.6 °F 1023.2 in Calm   1.6 mph 87 % 0.0 in
01:02 1.6 °F -0.5 °F 1023.2 in Calm   1.6 mph 86 % 0.0 in
01:07 1.4 °F -0.7 °F 1023.2 in Calm   1.6 mph 86 % 0.0 in
01:12 1.2 °F -1.0 °F 1023.2 in WNW 1.6 mph 1.6 mph 85 % 0.0 in
01:17 0.8 °F -1.1 °F 1023.2 in West 1.6 mph 1.6 mph 87 % 0.0 in
01:22 0.7 °F -1.1 °F 1023.2 in WNW 1.6 mph 1.6 mph 88 % 0.0 in
01:27 0.6 °F -1.2 °F 1023.6 in WNW 1.6 mph 1.6 mph 88 % 0.0 in
01:32 0.6 °F -1.0 °F 1023.6 in WNW 1.6 mph 1.6 mph 89 % 0.0 in
01:37 0.4 °F -1.2 °F 1023.6 in Calm   1.6 mph 89 % 0.0 in
01:42 0.7 °F -0.9 °F 1023.6 in Calm   1.6 mph 89 % 0.0 in
01:47 0.8 °F -1.0 °F 1023.6 in Calm   1.6 mph 88 % 0.0 in
01:52 0.8 °F -1.0 °F 1023.6 in Calm   1.6 mph 88 % 0.0 in
01:57 1.0 °F -0.8 °F 1023.6 in Calm     88 % 0.0 in
02:02 1.1 °F -0.8 °F 1023.2 in Calm     87 % 0.0 in
02:12 0.8 °F -1.1 °F 1023.2 in Calm     87 % 0.0 in
02:17 0.7 °F -1.1 °F 1023.2 in Calm     88 % 0.0 in
02:22 0.7 °F -1.2 °F 1023.2 in Calm     87 % 0.0 in
02:32 0.2 °F -1.4 °F 1023.2 in Calm     89 % 0.0 in
02:42 0.1 °F -1.3 °F 1023.2 in Calm     90 % 0.0 in
02:47 0.1 °F -1.3 °F 1023.2 in Calm     90 % 0.0 in
02:52 0.1 °F -1.3 °F 1023.2 in Calm     90 % 0.0 in
02:57 0.0 °F -1.4 °F 1023.2 in Calm     90 % 0.0 in
03:02 -0.2 °F -1.6 °F 1023.2 in Calm     90 % 0.0 in
03:07 -0.5 °F -1.9 °F 1023.2 in Calm     90 % 0.0 in
03:12 -0.7 °F -2.0 °F 1023.2 in Calm     91 % 0.0 in
03:17 -0.8 °F -2.1 °F 1023.2 in Calm     91 % 0.0 in
03:22 -0.6 °F -1.6 °F 1023.2 in Calm     93 % 0.0 in
03:32 -0.6 °F -1.9 °F 1023.2 in Calm     91 % 0.0 in
03:42 -0.8 °F -1.9 °F 1022.9 in Calm     92 % 0.0 in
03:47 -0.8 °F -1.9 °F 1022.9 in Calm     92 % 0.0 in
03:52 -0.8 °F -1.9 °F 1022.9 in Calm     92 % 0.0 in
04:02 -0.8 °F -1.8 °F 1022.9 in Calm     93 % 0.0 in
04:07 -0.7 °F -1.8 °F 1022.6 in Calm     92 % 0.0 in
04:12 -0.7 °F -1.8 °F 1022.6 in Calm     92 % 0.0 in
04:17 -0.7 °F -1.8 °F 1022.6 in Calm     92 % 0.0 in
04:22 -0.7 °F -1.8 °F 1022.6 in Calm     92 % 0.0 in
04:32 -0.9 °F -2.0 °F 1022.6 in Calm     92 % 0.0 in
04:37 -1.1 °F -2.2 °F 1022.6 in Calm     92 % 0.0 in
04:42 -1.2 °F -2.2 °F 1022.6 in Calm     93 % 0.0 in
04:47 -1.2 °F -2.2 °F 1022.6 in Calm     93 % 0.0 in
04:52 -1.2 °F -2.2 °F 1022.9 in Calm     93 % 0.0 in
04:57 -1.3 °F -2.4 °F 1022.9 in Calm     92 % 0.0 in
05:02 -1.4 °F -2.4 °F 1022.9 in Calm     93 % 0.0 in
05:12 -1.4 °F -2.2 °F 1022.9 in Calm     94 % 0.0 in
05:17 -1.3 °F -2.1 °F 1022.9 in Calm     94 % 0.0 in
05:22 -1.2 °F -2.0 °F 1022.9 in Calm     94 % 0.0 in
05:32 -1.5 °F -2.5 °F 1022.9 in Calm     93 % 0.0 in
05:37 -1.7 °F -2.7 °F 1022.9 in Calm     93 % 0.0 in
05:42 -1.6 °F -2.4 °F 1022.9 in Calm     94 % 0.0 in
05:47 -1.6 °F -2.4 °F 1022.9 in Calm     94 % 0.0 in
05:52 -1.5 °F -2.3 °F 1022.9 in Calm     94 % 0.0 in
06:02 -1.6 °F -2.4 °F 1022.9 in Calm     94 % 0.0 in
06:12 -1.7 °F -2.5 °F 1022.9 in Calm     94 % 0.0 in
06:17 -1.6 °F -2.3 °F 1022.9 in Calm     95 % 0.0 in
06:22 -1.4 °F -2.1 °F 1023.2 in Calm     95 % 0.0 in
06:32 -1.4 °F -2.2 °F 1023.2 in Calm     94 % 0.0 in
06:42 -1.5 °F -2.3 °F 1023.2 in Calm     94 % 0.0 in
06:47 -1.6 °F -2.6 °F 1023.2 in Calm     93 % 0.0 in
06:52 -1.6 °F -2.6 °F 1023.2 in Calm     93 % 0.0 in
07:02 -1.9 °F -2.9 °F 1023.2 in Calm     93 % 0.0 in
07:12 -2.1 °F -2.9 °F 1022.9 in Calm     94 % 0.0 in
07:17 -2.1 °F -2.9 °F 1023.2 in Calm     94 % 0.0 in
07:22 -2.2 °F -3.0 °F 1023.2 in Calm     94 % 0.0 in
07:32 -2.2 °F -2.9 °F 1023.2 in Calm     95 % 0.0 in
07:37 -2.2 °F -3.0 °F 1023.2 in Calm     94 % 0.0 in
07:42 -2.2 °F -3.0 °F 1023.6 in Calm     94 % 0.0 in
07:47 -2.1 °F -2.8 °F 1023.6 in Calm     95 % 0.0 in
07:52 -2.1 °F -2.8 °F 1023.6 in Calm     95 % 0.0 in
07:57 -2.2 °F -3.0 °F 1023.6 in Calm     94 % 0.0 in
08:02 -2.2 °F -2.9 °F 1023.6 in Calm     95 % 0.0 in
08:12 -2.1 °F -2.8 °F 1023.9 in Calm     95 % 0.0 in
08:17 -2.0 °F -2.7 °F 1023.9 in Calm     95 % 0.0 in
08:22 -1.6 °F -2.3 °F 1023.6 in Calm     95 % 0.0 in
08:32 -0.9 °F -1.6 °F 1023.9 in Calm     95 % 0.0 in
08:37 -0.7 °F -1.4 °F 1023.6 in Calm     95 % 0.0 in
08:42 -0.6 °F -1.6 °F 1023.9 in Calm     93 % 0.0 in
08:47 -0.5 °F -1.5 °F 1023.9 in Calm     93 % 0.0 in
08:52 -0.3 °F -1.3 °F 1023.9 in Calm     93 % 0.0 in
09:02 0.0 °F -1.0 °F 1023.9 in Calm     93 % 0.0 in
09:12 1.4 °F 0.2 °F 1023.9 in Calm     92 % 0.0 in
09:17 2.2 °F 1.2 °F 1023.9 in Calm     93 % 0.0 in
09:22 2.3 °F 0.5 °F 1023.9 in Calm     88 % 0.0 in
09:32 3.1 °F 0.8 °F 1023.9 in Calm     85 % 0.0 in
09:37 3.1 °F 0.5 °F 1023.9 in Calm     83 % 0.0 in
09:42 3.5 °F 1.1 °F 1023.9 in Calm     84 % 0.0 in
09:47 4.3 °F 1.8 °F 1024.3 in Calm     84 % 0.0 in
09:52 4.6 °F 1.4 °F 1024.3 in Calm     80 % 0.0 in
09:57 4.9 °F 1.4 °F 1024.3 in Calm     78 % 0.0 in
10:02 4.2 °F 0.7 °F 1024.3 in Calm     78 % 0.0 in
10:07 4.1 °F 1.3 °F 1024.3 in Calm     82 % 0.0 in
10:12 4.2 °F 1.2 °F 1024.3 in Calm     81 % 0.0 in
10:17 4.2 °F 1.1 °F 1024.3 in Calm     80 % 0.0 in
10:22 3.8 °F 0.8 °F 1024.3 in Calm     81 % 0.0 in
10:32 3.9 °F 1.3 °F 1024.3 in SSW 1.6 mph 3.2 mph 83 % 0.0 in
10:37 4.2 °F 1.7 °F 1024.3 in SSW 1.6 mph 3.2 mph 84 % 0.0 in
10:42 4.2 °F 1.6 °F 1024.3 in Calm   4.8 mph 83 % 0.0 in
10:47 4.4 °F 1.8 °F 1024.3 in SSE 3.2 mph 4.8 mph 83 % 0.0 in
10:52 4.5 °F 1.9 °F 1024.3 in Calm   6.4 mph 83 % 0.0 in
10:57 4.7 °F 2.1 °F 1024.3 in SSW 4.8 mph 6.4 mph 83 % 0.0 in
11:02 4.8 °F 2.2 °F 1024.3 in South 3.2 mph 6.4 mph 83 % 0.0 in
11:07 5.1 °F 2.5 °F 1024.3 in SE 3.2 mph 6.4 mph 83 % 0.0 in
11:12 5.3 °F 2.8 °F 1024.3 in South 4.8 mph 6.4 mph 84 % 0.0 in
11:17 5.4 °F 2.4 °F 1024.3 in SW 4.8 mph 6.4 mph 81 % 0.0 in
11:22 5.5 °F 2.7 °F 1024.3 in Calm   9.7 mph 82 % 0.0 in
11:27 5.8 °F 2.8 °F 1024.3 in SSW 3.2 mph 9.7 mph 81 % 0.0 in
11:32 5.9 °F 2.7 °F 1024.3 in SSW 6.4 mph 9.7 mph 80 % 0.0 in
11:42 6.2 °F 2.6 °F 1024.3 in SSW 8.0 mph 9.7 mph 78 % 0.0 in
11:47 6.2 °F 2.5 °F 1024.3 in SSW 9.7 mph 9.7 mph 77 % 0.0 in
11:52 6.3 °F 2.4 °F 1024.3 in South 3.2 mph 11.3 mph 76 % 0.0 in
11:57 6.4 °F 2.5 °F 1024.3 in SW 6.4 mph 11.3 mph 76 % 0.0 in
12:02 6.6 °F 2.7 °F 1024.3 in SW 6.4 mph 11.3 mph 76 % 0.0 in
12:12 6.8 °F 2.5 °F 1024.3 in SW 6.4 mph 9.7 mph 74 % 0.0 in
12:17 6.9 °F 2.6 °F 1024.3 in WSW 4.8 mph 9.7 mph 74 % 0.0 in
12:22 7.1 °F 2.6 °F 1024.3 in WSW 6.4 mph 11.3 mph 73 % 0.0 in
12:27 7.2 °F 2.7 °F 1024.3 in SSW 4.8 mph 11.3 mph 73 % 0.0 in
12:32 7.4 °F 2.3 °F 1024.3 in SSW 8.0 mph 11.3 mph 70 % 0.0 in
12:42 7.7 °F 2.6 °F 1023.9 in South 6.4 mph 11.3 mph 70 % 0.0 in
12:47 7.8 °F 2.5 °F 1023.9 in SW 3.2 mph 11.3 mph 69 % 0.0 in
12:57 8.0 °F 2.2 °F 1023.9 in Calm   9.7 mph 67 % 0.0 in
13:02 8.2 °F 2.0 °F 1023.6 in Calm   9.7 mph 65 % 0.0 in
13:12 8.2 °F 2.0 °F 1023.6 in SSE 4.8 mph 9.7 mph 65 % 0.0 in
13:17 8.4 °F 2.2 °F 1023.2 in SSW 8.0 mph 9.7 mph 65 % 0.0 in
13:22 8.6 °F 2.2 °F 1023.2 in SSW 3.2 mph 9.7 mph 64 % 0.0 in
13:32 8.8 °F 2.6 °F 1023.2 in WSW 8.0 mph 9.7 mph 65 % 0.0 in
13:37 8.6 °F 1.7 °F 1022.9 in SSE 3.2 mph 11.3 mph 62 % 0.0 in
13:42 8.7 °F 1.8 °F 1022.9 in SSW 3.2 mph 11.3 mph 62 % 0.0 in
13:47 8.9 °F 1.3 °F 1022.9 in SSW 8.0 mph 11.3 mph 59 % 0.0 in
13:52 8.9 °F 1.6 °F 1022.9 in South 3.2 mph 11.3 mph 60 % 0.0 in
13:57 9.0 °F 0.7 °F 1022.9 in SSW 3.2 mph 9.7 mph 56 % 0.0 in
14:02 9.1 °F 1.0 °F 1022.6 in SSE 6.4 mph 9.7 mph 57 % 0.0 in
14:12 9.1 °F 1.5 °F 1022.2 in SSW 1.6 mph 11.3 mph 59 % 0.0 in
14:17 9.1 °F 1.5 °F 1022.2 in SW 6.4 mph 11.3 mph 59 % 0.0 in
14:22 9.2 °F 2.1 °F 1022.2 in Calm   11.3 mph 61 % 0.0 in
14:27 9.3 °F 1.5 °F 1021.9 in SW 6.4 mph 8.0 mph 58 % 0.0 in
14:32 9.3 °F 1.9 °F 1021.9 in SSW 1.6 mph 8.0 mph 60 % 0.0 in
14:37 9.7 °F 1.8 °F 1021.9 in ESE 3.2 mph 8.0 mph 58 % 0.0 in
14:42 9.4 °F 1.3 °F 1021.9 in SE 1.6 mph 8.0 mph 57 % 0.0 in
14:52 9.6 °F 1.0 °F 1021.6 in SW 6.4 mph 8.0 mph 55 % 0.0 in
14:57 9.4 °F 1.1 °F 1021.6 in West 1.6 mph 9.7 mph 56 % 0.0 in
15:02 9.6 °F 1.0 °F 1021.6 in SSE 6.4 mph 9.7 mph 55 % 0.0 in
15:07 9.7 °F 1.8 °F 1021.6 in South 4.8 mph 12.9 mph 58 % 0.0 in
15:12 9.7 °F 1.1 °F 1021.6 in SW 6.4 mph 12.9 mph 55 % 0.0 in
15:17 9.7 °F 1.1 °F 1021.6 in South 4.8 mph 12.9 mph 55 % 0.0 in
15:22 9.7 °F 0.8 °F 1021.6 in SW 6.4 mph 12.9 mph 54 % 0.0 in
15:27 9.7 °F 1.1 °F 1021.2 in SW 6.4 mph 11.3 mph 55 % 0.0 in
15:32 9.6 °F 0.5 °F 1021.6 in South 1.6 mph 11.3 mph 53 % 0.0 in
15:37 9.8 °F 1.4 °F 1021.2 in SW 6.4 mph 11.3 mph 56 % 0.0 in
15:42 9.7 °F 0.6 °F 1021.2 in SSW 1.6 mph 11.3 mph 53 % 0.0 in
15:52 9.9 °F 0.5 °F 1020.9 in SSW 1.6 mph 11.3 mph 52 % 0.0 in
15:57 10.1 °F 0.7 °F 1020.9 in SW 6.4 mph 6.4 mph 52 % 0.0 in
16:02 10.1 °F 0.7 °F 1020.9 in SSW 3.2 mph 6.4 mph 52 % 0.0 in
16:12 10.2 °F 0.5 °F 1020.9 in SW 3.2 mph 6.4 mph 51 % 0.0 in
16:17 10.3 °F 0.3 °F 1020.9 in SSW 6.4 mph 11.3 mph 50 % 0.0 in
16:22 10.3 °F 0.6 °F 1020.9 in South 4.8 mph 11.3 mph 51 % 0.0 in
16:32 10.4 °F 0.4 °F 1020.5 in SW 12.9 mph 12.9 mph 50 % 0.0 in
16:37 10.3 °F 0.6 °F 1020.5 in SSW 6.4 mph 14.5 mph 51 % 0.0 in
16:42 10.3 °F 1.7 °F 1020.5 in SW 8.0 mph 14.5 mph 55 % 0.0 in
16:47 10.2 °F 0.2 °F 1020.5 in SW 4.8 mph 14.5 mph 50 % 0.0 in
16:52 10.3 °F 0.9 °F 1020.5 in SSE 6.4 mph 14.5 mph 52 % 0.0 in
16:57 10.3 °F 0.9 °F 1020.5 in SW 8.0 mph 11.3 mph 52 % 0.0 in
17:02 10.2 °F 1.0 °F 1020.5 in SSW 4.8 mph 11.3 mph 53 % 0.0 in
17:12 10.2 °F 1.6 °F 1020.5 in SSW 6.4 mph 9.7 mph 55 % 0.0 in
17:17 10.2 °F 2.1 °F 1020.2 in South 1.6 mph 9.7 mph 57 % 0.0 in
17:22 10.2 °F 2.1 °F 1020.2 in SSW 3.2 mph 9.7 mph 57 % 0.0 in
17:32 9.9 °F 1.8 °F 1020.2 in South 4.8 mph 8.0 mph 57 % 0.0 in
17:42 9.9 °F 2.3 °F 1019.9 in South 3.2 mph 8.0 mph 59 % 0.0 in
17:47 9.8 °F 1.9 °F 1019.9 in SSE 3.2 mph 6.4 mph 58 % 0.0 in
17:52 9.6 °F 1.5 °F 1019.9 in South 1.6 mph 6.4 mph 57 % 0.0 in
18:02 9.1 °F 1.5 °F 1019.9 in SSE 1.6 mph 6.4 mph 59 % 0.0 in
18:12 8.7 °F 1.6 °F 1019.9 in SSW 1.6 mph 6.4 mph 61 % 0.0 in
18:17 8.4 °F 2.0 °F 1019.9 in SSW 1.6 mph 4.8 mph 64 % 0.0 in
18:22 8.1 °F 2.1 °F 1020.2 in SW 1.6 mph 4.8 mph 66 % 0.0 in
18:32 7.9 °F 1.7 °F 1020.2 in SW 1.6 mph 3.2 mph 65 % 0.0 in
18:37 7.9 °F 1.3 °F 1020.5 in SW 3.2 mph 3.2 mph 63 % 0.0 in
18:42 8.1 °F 1.3 °F 1020.5 in WSW 1.6 mph 4.8 mph 62 % 0.0 in
18:52 7.9 °F 1.3 °F 1020.2 in SW 1.6 mph 4.8 mph 63 % 0.0 in
18:57 7.8 °F 1.2 °F 1020.2 in Calm   3.2 mph 63 % 0.0 in
19:02 7.7 °F 1.1 °F 1020.5 in Calm   3.2 mph 63 % 0.0 in
19:12 7.6 °F 1.0 °F 1020.5 in Calm   3.2 mph 63 % 0.0 in
19:17 7.4 °F 1.0 °F 1020.5 in Calm   1.6 mph 64 % 0.0 in
19:22 7.3 °F 0.9 °F 1020.5 in Calm   1.6 mph 64 % 0.0 in
19:32 6.9 °F 1.2 °F 1020.2 in Calm   1.6 mph 67 % 0.0 in
19:37 6.6 °F 1.1 °F 1020.2 in Calm     68 % 0.0 in
19:42 6.4 °F 1.3 °F 1020.2 in Calm     70 % 0.0 in
19:47 6.2 °F 1.3 °F 1020.2 in Calm     71 % 0.0 in
19:52 6.1 °F 1.4 °F 1020.2 in Calm     72 % 0.0 in
19:57 5.9 °F 1.4 °F 1020.2 in Calm     73 % 0.0 in
20:02 5.8 °F 1.5 °F 1020.2 in Calm     74 % 0.0 in
20:07 5.8 °F 1.3 °F 1020.2 in Calm     73 % 0.0 in
20:12 5.9 °F 1.2 °F 1020.2 in Calm     72 % 0.0 in
20:17 5.8 °F 1.3 °F 1020.2 in Calm     73 % 0.0 in
20:22 5.7 °F 1.0 °F 1020.2 in Calm     72 % 0.0 in
20:27 5.6 °F 1.0 °F 1020.2 in Calm     72 % 0.0 in
20:32 5.6 °F 1.1 °F 1020.2 in Calm     73 % 0.0 in
20:37 5.2 °F 0.8 °F 1020.2 in Calm     73 % 0.0 in
20:42 5.1 °F 0.7 °F 1020.2 in Calm     73 % 0.0 in
20:47 5.3 °F 0.7 °F 1020.2 in Calm     72 % 0.0 in
20:52 5.4 °F 0.8 °F 1019.9 in Calm     72 % 0.0 in
20:57 5.4 °F 0.8 °F 1019.9 in Calm     72 % 0.0 in
21:02 5.3 °F 1.0 °F 1019.9 in Calm     74 % 0.0 in
21:12 4.7 °F 0.6 °F 1019.9 in Calm     75 % 0.0 in
21:17 4.4 °F 0.7 °F 1019.9 in Calm     77 % 0.0 in
21:27 4.5 °F 0.6 °F 1019.9 in Calm     76 % 0.0 in
21:32 4.6 °F 0.6 °F 1019.9 in Calm     75 % 0.0 in
21:37 4.6 °F 0.6 °F 1019.9 in Calm     75 % 0.0 in
21:42 4.8 °F 0.6 °F 1020.2 in Calm     74 % 0.0 in
21:47 4.8 °F 0.6 °F 1019.9 in Calm     74 % 0.0 in
21:52 4.8 °F 0.6 °F 1019.9 in Calm     74 % 0.0 in
21:57 4.8 °F 0.4 °F 1019.9 in Calm     73 % 0.0 in
22:02 4.8 °F 0.2 °F 1019.9 in Calm     72 % 0.0 in
22:07 4.6 °F 0.2 °F 1019.9 in Calm     73 % 0.0 in
22:12 4.6 °F 0.4 °F 1019.9 in Calm     74 % 0.0 in
22:17 4.7 °F 0.3 °F 1019.9 in Calm   1.6 mph 73 % 0.0 in
22:22 4.4 °F 0.2 °F 1019.9 in Calm   1.6 mph 74 % 0.0 in
22:32 3.9 °F -0.1 °F 1019.9 in Calm   1.6 mph 75 % 0.0 in
22:42 4.2 °F 0.0 °F 1019.9 in Calm   1.6 mph 74 % 0.0 in
22:47 4.1 °F -0.1 °F 1019.9 in Calm   1.6 mph 74 % 0.0 in
22:52 4.0 °F 0.0 °F 1019.9 in Calm   1.6 mph 75 % 0.0 in
23:02 3.9 °F 0.1 °F 1019.5 in Calm   1.6 mph 76 % 0.0 in
23:07 4.2 °F 0.0 °F 1019.5 in Calm   1.6 mph 74 % 0.0 in
23:12 4.3 °F -0.1 °F 1019.5 in Calm   1.6 mph 73 % 0.0 in
23:17 4.0 °F -0.2 °F 1019.5 in Calm   1.6 mph 74 % 0.0 in
23:22 3.9 °F -0.1 °F 1019.5 in SW 1.6 mph 1.6 mph 75 % 0.0 in
23:27 4.2 °F 0.0 °F 1019.5 in SSW 1.6 mph 1.6 mph 74 % 0.0 in
23:32 4.2 °F -0.2 °F 1019.5 in Calm   1.6 mph 73 % 0.0 in
23:42 4.1 °F -0.1 °F 1019.5 in Calm   1.6 mph 74 % 0.0 in
23:47 4.0 °F -0.2 °F 1019.5 in Calm     74 % 0.0 in
23:52 3.9 °F -0.1 °F 1019.5 in Calm     75 % 0.0 in
23:57 3.8 °F -0.2 °F 1019.5 in Calm     75 % 0.0 in
Meteo18
Compliments of Weather Underground - 4 mb

Script developed by  Jim McMurry - jmcmurry@mwt.net Adapted for the template by  Wim van der Kuil - Leuven-Template.eu

You find our weather info also at:

European Weather Network

Weather Underground

Equipment we use:

Weather-station
Davis Vue

Weather-program
Meteobridge

Weather-server
Raspberry PI 2 B+

Provider
1 and 1

Davis Vue

Meteobridge

Raspberry PI 2 B+

1 and 1